createdAt,value
2022-09-07T00:01:21.567Z,20.13
2022-09-07T00:03:50.239Z,20.23
2022-09-07T00:06:18.920Z,19.98
2022-09-07T00:08:47.519Z,20.71
2022-09-07T00:11:19.321Z,21.52
2022-09-07T00:13:49.911Z,20.45
2022-09-07T00:16:20.667Z,20.15
2022-09-07T00:18:49.517Z,20.12
2022-09-07T00:21:19.120Z,20.95
2022-09-07T00:23:48.975Z,21.82
2022-09-07T00:26:20.994Z,20.41
2022-09-07T00:28:50.609Z,19.01
2022-09-07T00:31:22.602Z,20.53
2022-09-07T00:33:52.881Z,21.91
2022-09-07T00:36:22.888Z,21.68
2022-09-07T00:38:52.232Z,19.82
2022-09-07T00:41:23.500Z,20.71
2022-09-07T00:43:54.179Z,21.59
2022-09-07T00:46:24.528Z,20.88
2022-09-07T00:49:01.114Z,20.00
2022-09-07T00:51:33.825Z,19.53
2022-09-07T00:54:07.133Z,18.12
2022-09-07T00:56:40.348Z,18.34
2022-09-07T00:59:10.356Z,18.65
2022-09-07T01:01:40.683Z,19.37
2022-09-07T01:04:10.359Z,19.99
2022-09-07T01:06:42.459Z,22.04
2022-09-07T01:09:15.856Z,20.63
2022-09-07T01:11:50.946Z,19.66
2022-09-07T01:14:22.131Z,20.88
2022-09-07T01:17:01.109Z,21.93
2022-09-07T01:20:19.015Z,22.48
2022-09-07T01:23:17.431Z,20.58
2022-09-07T01:25:55.587Z,19.39
2022-09-07T01:28:28.373Z,19.61
2022-09-07T01:31:00.459Z,19.05
2022-09-07T01:33:44.420Z,19.14
2022-09-07T01:36:24.070Z,18.92
2022-09-07T01:38:56.228Z,18.39
2022-09-07T01:41:30.695Z,18.83
2022-09-07T01:44:06.846Z,18.59
2022-09-07T01:46:41.412Z,19.47
2022-09-07T01:49:16.916Z,19.64
2022-09-07T01:51:49.118Z,19.69
2022-09-07T01:54:23.747Z,20.63
2022-09-07T01:56:57.534Z,20.25
2022-09-07T01:59:33.569Z,22.18
2022-09-07T02:02:06.916Z,20.79
2022-09-07T02:04:40.819Z,21.98
2022-09-07T02:07:15.472Z,22.00
2022-09-07T02:09:51.363Z,21.42
2022-09-07T02:12:27.160Z,22.66
2022-09-07T02:15:01.239Z,23.21
2022-09-07T02:17:34.918Z,23.41
2022-09-07T02:20:11.243Z,23.34
2022-09-07T02:22:44.554Z,23.68
2022-09-07T02:25:18.547Z,23.41
2022-09-07T02:27:49.481Z,22.70
2022-09-07T02:30:19.645Z,21.48
2022-09-07T02:32:48.239Z,21.72
2022-09-07T02:35:17.155Z,21.52
2022-09-07T02:37:46.596Z,21.31
2022-09-07T02:40:15.916Z,21.74
2022-09-07T02:42:45.970Z,22.21
2022-09-07T02:45:17.080Z,22.08
2022-09-07T02:48:01.097Z,22.99
2022-09-07T02:50:50.192Z,23.53
2022-09-07T02:53:34.090Z,23.56
2022-09-07T02:56:16.847Z,23.56
2022-09-07T02:58:54.521Z,23.67
2022-09-07T03:01:34.235Z,23.72
2022-09-07T03:04:13.865Z,23.51
2022-09-07T03:06:46.276Z,23.74
2022-09-07T03:09:20.351Z,23.40
2022-09-07T03:11:50.019Z,23.14
2022-09-07T03:14:20.441Z,21.88
2022-09-07T03:16:51.467Z,21.92
2022-09-07T03:19:21.541Z,22.53
2022-09-07T03:21:50.163Z,22.69
2022-09-07T03:24:18.811Z,23.27
2022-09-07T03:26:50.542Z,23.52
2022-09-07T03:29:19.821Z,22.78
2022-09-07T03:31:48.488Z,22.52
2022-09-07T03:34:18.179Z,22.15
2022-09-07T03:36:48.101Z,21.83
2022-09-07T03:39:20.853Z,21.14
2022-09-07T03:41:49.851Z,21.56
2022-09-07T03:44:18.443Z,22.15
2022-09-07T03:46:47.004Z,21.40
2022-09-07T03:49:17.424Z,20.99
2022-09-07T03:51:47.371Z,20.92
2022-09-07T03:54:15.945Z,20.79
2022-09-07T03:56:44.500Z,21.40
2022-09-07T03:59:13.094Z,21.46
2022-09-07T04:01:41.752Z,19.43
2022-09-07T04:04:10.758Z,19.81
2022-09-07T04:06:39.308Z,21.10
2022-09-07T04:09:12.974Z,21.51
2022-09-07T04:11:42.242Z,20.79
2022-09-07T04:14:11.238Z,20.87
2022-09-07T04:16:40.006Z,19.55
2022-09-07T04:19:08.665Z,20.12
2022-09-07T04:21:37.215Z,19.04
2022-09-07T04:24:05.958Z,19.65
2022-09-07T04:26:37.161Z,20.92
2022-09-07T04:29:06.979Z,20.32
2022-09-07T04:31:36.067Z,20.84
2022-09-07T04:34:05.419Z,19.45
2022-09-07T04:36:34.514Z,19.21
2022-09-07T04:39:05.616Z,19.55
2022-09-07T04:41:36.381Z,20.13
2022-09-07T04:44:05.962Z,20.71
2022-09-07T04:46:35.851Z,20.78
2022-09-07T04:49:06.918Z,21.72
2022-09-07T04:51:36.432Z,19.92
2022-09-07T04:54:05.763Z,20.79
2022-09-07T04:56:36.233Z,20.66
2022-09-07T04:59:05.662Z,21.31
2022-09-07T05:01:34.476Z,20.64
2022-09-07T05:04:04.433Z,20.92
2022-09-07T05:06:33.341Z,19.20
2022-09-07T05:09:01.932Z,20.78
2022-09-07T05:11:30.763Z,21.19
2022-09-07T05:14:02.140Z,21.06
2022-09-07T05:16:32.201Z,21.29
2022-09-07T05:19:03.340Z,20.73
2022-09-07T05:21:33.252Z,20.89
2022-09-07T05:24:03.059Z,21.99
2022-09-07T05:26:33.877Z,21.98
2022-09-07T05:31:56.066Z,22.17
2022-09-07T05:36:56.708Z,20.87
2022-09-07T05:39:25.589Z,21.42
2022-09-07T05:41:54.277Z,21.37
2022-09-07T05:47:13.236Z,22.70
2022-09-07T05:49:42.003Z,23.29
2022-09-07T05:52:10.836Z,23.20
2022-09-07T05:54:39.443Z,23.59
2022-09-07T05:57:08.232Z,23.95
2022-09-07T05:59:38.189Z,23.50
2022-09-07T06:02:07.309Z,24.81
2022-09-07T06:04:36.004Z,25.43
2022-09-07T06:07:20.981Z,25.16
2022-09-07T06:12:38.088Z,24.37
2022-09-07T06:15:09.756Z,24.82
2022-09-07T06:17:38.020Z,24.95
2022-09-07T06:20:07.780Z,24.66
2022-09-07T06:22:37.449Z,24.36
2022-09-07T06:25:06.854Z,21.94
2022-09-07T06:27:35.209Z,22.63
2022-09-07T06:30:03.569Z,22.85
2022-09-07T06:32:48.599Z,21.11
2022-09-07T06:35:17.884Z,20.88
2022-09-07T06:37:46.351Z,21.63
2022-09-07T06:40:14.695Z,21.85
2022-09-07T06:42:43.024Z,22.23
2022-09-07T06:45:12.031Z,21.53
2022-09-07T06:47:42.098Z,21.53
2022-09-07T06:50:12.516Z,22.55
2022-09-07T06:55:29.413Z,22.34
2022-09-07T06:57:57.970Z,20.91
2022-09-07T07:00:26.360Z,20.30
2022-09-07T07:02:58.152Z,21.85
2022-09-07T07:05:26.470Z,20.80
2022-09-07T07:07:56.360Z,20.33
2022-09-07T07:10:25.183Z,20.36
2022-09-07T07:12:57.505Z,21.50
2022-09-07T07:15:28.756Z,21.23
2022-09-07T07:18:09.231Z,21.04
2022-09-07T07:20:43.289Z,21.29
2022-09-07T07:23:12.317Z,20.22
2022-09-07T07:25:40.619Z,19.61
2022-09-07T07:30:57.989Z,21.22
2022-09-07T07:33:32.090Z,20.90
2022-09-07T07:36:14.829Z,22.18
2022-09-07T07:39:00.594Z,22.94
2022-09-07T07:44:21.510Z,20.76
2022-09-07T07:46:50.502Z,21.28
2022-09-07T07:49:20.939Z,20.96
2022-09-07T07:54:37.907Z,21.89
2022-09-07T07:57:07.100Z,22.24
2022-09-07T07:59:35.683Z,21.18
2022-09-07T08:02:05.388Z,20.21
2022-09-07T08:04:36.194Z,20.08
2022-09-07T08:07:10.204Z,20.71
2022-09-07T08:09:40.596Z,20.42
2022-09-07T08:12:10.068Z,20.07
2022-09-07T08:14:41.007Z,21.61
2022-09-07T08:17:10.872Z,22.38
2022-09-07T08:19:41.231Z,22.87
2022-09-07T08:22:10.516Z,22.43
2022-09-07T08:24:38.888Z,20.46
2022-09-07T08:27:07.539Z,21.50
2022-09-07T08:29:36.685Z,22.22
2022-09-07T08:32:07.118Z,22.79
2022-09-07T08:34:38.874Z,23.08
2022-09-07T08:37:07.775Z,23.25
2022-09-07T08:39:36.728Z,21.72
2022-09-07T08:42:45.060Z,21.99
2022-09-07T08:45:19.099Z,22.82
2022-09-07T08:47:51.361Z,23.44
2022-09-07T08:50:28.680Z,23.49
2022-09-07T08:53:02.469Z,23.36
2022-09-07T08:55:34.476Z,22.90
2022-09-07T08:58:22.108Z,23.34
2022-09-07T09:06:48.315Z,22.43
2022-09-07T09:09:30.317Z,22.90
2022-09-07T09:12:14.320Z,22.83
2022-09-07T09:15:04.067Z,23.61
2022-09-07T09:17:38.259Z,21.52
2022-09-07T09:20:21.035Z,21.86
2022-09-07T09:22:52.329Z,22.67
2022-09-07T09:25:34.660Z,22.76
2022-09-07T09:28:03.588Z,21.94
2022-09-07T09:30:31.861Z,24.06
2022-09-07T09:33:19.036Z,21.35
2022-09-07T09:35:50.946Z,22.19
2022-09-07T09:38:34.307Z,20.66
2022-09-07T09:41:07.734Z,20.91
2022-09-07T09:43:42.327Z,21.56
2022-09-07T09:46:26.939Z,22.21
2022-09-07T09:48:59.194Z,24.07
2022-09-07T09:54:27.295Z,24.23
2022-09-07T09:56:55.577Z,23.97
2022-09-07T10:05:30.694Z,25.26
2022-09-07T10:07:59.327Z,24.84
2022-09-07T10:10:31.496Z,24.89
2022-09-07T10:13:00.567Z,23.75
2022-09-07T10:15:41.214Z,23.97
2022-09-07T10:18:21.319Z,23.53
2022-09-07T10:20:49.983Z,24.55
2022-09-07T10:23:25.307Z,23.81
2022-09-07T10:25:54.955Z,24.04
2022-09-07T10:28:25.363Z,22.88
2022-09-07T10:31:14.807Z,22.43
2022-09-07T10:36:49.645Z,22.93
2022-09-07T10:39:24.284Z,22.34
2022-09-07T10:42:02.426Z,22.15
2022-09-07T10:44:49.365Z,23.04
2022-09-07T10:47:32.684Z,23.16
2022-09-07T10:50:24.654Z,24.15
2022-09-07T10:53:29.849Z,24.65
2022-09-07T10:56:05.488Z,24.22
2022-09-07T10:59:04.546Z,24.59
2022-09-07T11:01:49.806Z,24.51
2022-09-07T11:04:49.916Z,24.17
2022-09-07T11:07:34.257Z,23.72
2022-09-07T11:10:14.794Z,23.84
2022-09-07T11:12:44.688Z,23.62
2022-09-07T11:15:23.936Z,24.08
2022-09-07T11:17:59.520Z,23.59
2022-09-07T11:20:33.343Z,23.60
2022-09-07T11:23:16.874Z,23.24
2022-09-07T11:25:55.129Z,23.92
2022-09-07T11:28:27.552Z,24.51
2022-09-07T11:31:02.852Z,24.15
2022-09-07T11:33:36.312Z,24.91
2022-09-07T11:36:12.763Z,25.01
2022-09-07T11:38:46.358Z,25.26
2022-09-07T11:41:25.414Z,24.78
2022-09-07T11:44:07.898Z,24.32
2022-09-07T11:46:45.946Z,24.20
2022-09-07T11:49:21.107Z,24.95
2022-09-07T11:51:54.503Z,25.23
2022-09-07T11:54:47.021Z,25.63
2022-09-07T11:57:57.031Z,25.84
2022-09-07T12:00:33.976Z,24.27
2022-09-07T12:03:45.384Z,24.12
2022-09-07T12:07:07.557Z,24.80
2022-09-07T12:10:03.516Z,24.60
2022-09-07T12:13:37.603Z,25.26
2022-09-07T12:16:13.100Z,24.83
2022-09-07T12:19:17.048Z,25.05
2022-09-07T12:21:48.333Z,24.49
2022-09-07T12:24:42.150Z,24.45
2022-09-07T12:27:41.317Z,24.46
2022-09-07T12:30:53.482Z,24.19
2022-09-07T12:33:34.267Z,24.01
2022-09-07T12:36:49.468Z,24.30
2022-09-07T12:39:25.721Z,24.67
2022-09-07T12:45:50.552Z,24.20
2022-09-07T12:48:49.448Z,24.73
2022-09-07T12:54:34.473Z,24.38
2022-09-07T12:57:31.179Z,24.39
2022-09-07T13:00:12.989Z,25.05
2022-09-07T13:09:35.786Z,25.63
2022-09-07T13:15:40.985Z,25.17
2022-09-07T13:18:13.579Z,26.03
2022-09-07T13:20:41.966Z,25.85
2022-09-07T13:23:23.243Z,26.44
2022-09-07T13:25:56.672Z,26.53
2022-09-07T13:28:52.600Z,26.34
2022-09-07T13:31:45.400Z,25.62
2022-09-07T13:35:00.664Z,25.71
2022-09-07T13:37:30.505Z,26.20
2022-09-07T13:39:59.947Z,25.70
2022-09-07T13:42:33.396Z,25.54
2022-09-07T13:45:05.020Z,25.86
2022-09-07T13:47:54.378Z,25.92
2022-09-07T13:50:45.908Z,25.39
2022-09-07T13:53:47.807Z,24.93
2022-09-07T13:56:25.550Z,25.90
2022-09-07T13:58:56.264Z,25.60
2022-09-07T14:01:27.503Z,24.80
2022-09-07T14:04:02.344Z,25.24
2022-09-07T14:06:34.337Z,25.63
2022-09-07T14:09:07.080Z,25.61
2022-09-07T14:11:44.530Z,25.83
2022-09-07T14:14:23.264Z,25.95
2022-09-07T14:16:58.511Z,25.32
2022-09-07T14:19:32.058Z,25.52
2022-09-07T14:22:03.034Z,25.90
2022-09-07T14:24:35.444Z,26.02
2022-09-07T14:27:05.762Z,26.31
2022-09-07T14:29:37.557Z,25.71
2022-09-07T14:32:11.595Z,26.33
2022-09-07T14:34:40.377Z,26.16
2022-09-07T14:37:13.552Z,25.44
2022-09-07T14:39:46.112Z,26.01
2022-09-07T14:42:18.605Z,25.75
2022-09-07T14:44:49.418Z,26.50
2022-09-07T14:47:29.643Z,25.84
2022-09-07T14:50:06.014Z,25.44
2022-09-07T14:52:43.354Z,25.91
2022-09-07T14:55:30.036Z,25.72
2022-09-07T14:58:25.129Z,25.50
2022-09-07T15:04:00.983Z,26.42
2022-09-07T15:09:35.952Z,25.51
2022-09-07T15:12:15.393Z,25.52
2022-09-07T15:14:44.234Z,25.78
2022-09-07T15:20:36.543Z,26.13
2022-09-07T15:23:06.711Z,25.66
2022-09-07T15:25:36.700Z,25.59
2022-09-07T15:28:05.802Z,25.68
2022-09-07T15:30:34.972Z,25.10
2022-09-07T15:33:04.796Z,25.90
2022-09-07T15:35:33.074Z,25.84
2022-09-07T15:38:04.367Z,25.57
2022-09-07T15:41:03.757Z,25.55
2022-09-07T15:43:31.466Z,25.79
2022-09-07T15:45:59.950Z,26.05
2022-09-07T15:48:29.599Z,26.33
2022-09-07T15:52:04.731Z,26.17
2022-09-07T15:56:43.668Z,25.43
2022-09-07T15:59:12.982Z,24.91
2022-09-07T16:01:58.064Z,25.21
2022-09-07T16:04:28.065Z,24.37
2022-09-07T16:06:56.452Z,24.65
2022-09-07T16:09:24.988Z,24.86
2022-09-07T16:11:54.055Z,24.29
2022-09-07T16:14:22.436Z,25.21
2022-09-07T16:19:41.349Z,24.66
2022-09-07T16:22:09.973Z,24.99
2022-09-07T16:24:38.756Z,25.46
2022-09-07T16:27:07.158Z,25.51
2022-09-07T16:29:35.608Z,25.64
2022-09-07T16:34:54.298Z,25.68
2022-09-07T16:37:22.566Z,25.85
2022-09-07T16:39:52.072Z,25.33
2022-09-07T16:42:20.495Z,25.61
2022-09-07T16:44:49.331Z,25.99
2022-09-07T16:47:17.782Z,26.28
2022-09-07T16:49:46.056Z,26.30
2022-09-07T16:52:15.690Z,25.53
2022-09-07T16:54:43.989Z,25.46
2022-09-07T16:57:14.500Z,25.29
2022-09-07T16:59:43.830Z,25.09
2022-09-07T17:02:18.201Z,25.32
2022-09-07T17:04:46.990Z,25.22
2022-09-07T17:07:16.599Z,25.06
2022-09-07T17:09:44.858Z,25.34
2022-09-07T17:12:13.132Z,25.40
2022-09-07T17:14:41.480Z,25.75
2022-09-07T17:17:09.843Z,25.57
2022-09-07T17:19:38.130Z,25.41
2022-09-07T17:22:07.210Z,25.72
2022-09-07T17:24:38.808Z,25.63
2022-09-07T17:27:07.191Z,25.34
2022-09-07T17:29:37.518Z,25.33
2022-09-07T17:34:55.442Z,25.37
2022-09-07T17:37:23.703Z,25.04
2022-09-07T17:39:53.573Z,25.24
2022-09-07T17:42:22.174Z,25.40
2022-09-07T17:44:53.680Z,25.52
2022-09-07T17:47:22.295Z,25.55
2022-09-07T17:49:50.605Z,25.52
2022-09-07T17:52:18.891Z,25.38
2022-09-07T17:54:47.216Z,25.48
2022-09-07T17:57:16.825Z,25.37
2022-09-07T18:02:33.553Z,25.38
2022-09-07T18:05:02.431Z,25.37
2022-09-07T18:07:32.756Z,25.37
2022-09-07T18:10:01.145Z,25.34
2022-09-07T18:12:32.014Z,25.31
2022-09-07T18:15:01.121Z,25.25
2022-09-07T18:17:29.375Z,25.23
2022-09-07T18:19:57.999Z,25.21
2022-09-07T18:22:26.379Z,25.16
2022-09-07T18:24:54.648Z,25.13
2022-09-07T18:27:22.889Z,25.10
2022-09-07T18:29:52.522Z,25.04
2022-09-07T18:32:20.780Z,24.98
2022-09-07T18:34:50.728Z,24.91
2022-09-07T18:37:19.401Z,24.88
2022-09-07T18:39:48.684Z,24.90
2022-09-07T18:42:17.029Z,24.87
2022-09-07T18:47:35.751Z,24.60
2022-09-07T18:50:04.581Z,24.49
2022-09-07T18:55:21.391Z,24.33
2022-09-07T18:57:49.631Z,24.34
2022-09-07T19:00:18.143Z,24.32
2022-09-07T19:02:51.300Z,24.37
2022-09-07T19:08:08.678Z,24.41
2022-09-07T19:10:38.244Z,24.46
2022-09-07T19:13:06.511Z,24.46
2022-09-07T19:15:37.513Z,24.51
2022-09-07T19:18:08.720Z,24.54
2022-09-07T19:20:37.673Z,24.51
2022-09-07T19:23:06.710Z,24.51
2022-09-07T19:25:35.096Z,24.54
2022-09-07T19:28:03.656Z,24.54
2022-09-07T19:30:31.927Z,24.53
2022-09-07T19:33:04.185Z,24.55
2022-09-07T19:35:37.678Z,24.55
2022-09-07T19:38:06.122Z,24.53
2022-09-07T19:40:34.524Z,24.51
2022-09-07T19:43:02.774Z,24.55
2022-09-07T19:45:31.125Z,24.55
2022-09-07T19:47:59.729Z,24.57
2022-09-07T19:50:28.104Z,24.56
2022-09-07T19:52:58.437Z,24.56
2022-09-07T19:55:27.468Z,24.53
2022-09-07T19:57:55.752Z,24.54
2022-09-07T20:00:24.758Z,24.54
2022-09-07T20:02:54.211Z,24.50
2022-09-07T20:05:23.818Z,24.52
2022-09-07T20:07:52.236Z,24.49
2022-09-07T20:10:22.252Z,24.29
2022-09-07T20:12:50.580Z,24.33
2022-09-07T20:15:18.871Z,24.37
2022-09-07T20:17:47.592Z,24.38
2022-09-07T20:20:16.164Z,24.39
2022-09-07T20:22:44.481Z,24.44
2022-09-07T20:25:13.454Z,24.44
2022-09-07T20:27:43.225Z,24.45
2022-09-07T20:30:13.152Z,24.41
2022-09-07T20:32:41.446Z,24.29
2022-09-07T20:35:10.905Z,24.05
2022-09-07T20:37:39.188Z,24.14
2022-09-07T20:40:09.595Z,23.87
2022-09-07T20:42:39.178Z,24.05
2022-09-07T20:45:10.447Z,24.15
2022-09-07T20:47:38.731Z,24.20
2022-09-07T20:50:08.020Z,24.25
2022-09-07T20:52:36.293Z,24.32
2022-09-07T20:55:05.127Z,24.27
2022-09-07T20:57:33.445Z,24.26
2022-09-07T21:00:01.725Z,24.18
2022-09-07T21:02:32.160Z,24.22
2022-09-07T21:05:00.992Z,24.22
2022-09-07T21:07:29.348Z,24.27
2022-09-07T21:09:57.614Z,24.24
2022-09-07T21:12:25.954Z,24.27
2022-09-07T21:14:54.178Z,24.25
2022-09-07T21:17:22.439Z,24.21
2022-09-07T21:19:52.116Z,24.13
2022-09-07T21:22:20.509Z,24.16
2022-09-07T21:24:48.748Z,24.19
2022-09-07T21:27:17.026Z,24.14
2022-09-07T21:29:45.267Z,24.17
2022-09-07T21:32:13.540Z,24.20
2022-09-07T21:34:41.776Z,24.20
2022-09-07T21:37:11.444Z,23.99
2022-09-07T21:39:39.781Z,23.18
2022-09-07T21:42:08.175Z,22.48
2022-09-07T21:44:36.431Z,23.16
2022-09-07T21:47:04.813Z,23.47
2022-09-07T21:49:33.075Z,23.75
2022-09-07T21:52:01.362Z,23.86
2022-09-07T21:54:31.145Z,23.71
2022-09-07T21:56:59.451Z,23.80
2022-09-07T21:59:27.704Z,23.90
2022-09-07T22:01:56.048Z,23.89
2022-09-07T22:04:25.266Z,23.98
2022-09-07T22:06:53.675Z,23.97
2022-09-07T22:09:22.203Z,23.94
2022-09-07T22:11:52.429Z,23.99
2022-09-07T22:14:20.703Z,23.92
2022-09-07T22:16:49.015Z,23.90
2022-09-07T22:19:17.253Z,23.96
2022-09-07T22:21:45.605Z,23.88
2022-09-07T22:24:15.261Z,23.94
2022-09-07T22:26:43.563Z,23.96
2022-09-07T22:29:14.282Z,24.00
2022-09-07T22:31:43.053Z,23.93
2022-09-07T22:34:12.024Z,23.91
2022-09-07T22:36:43.196Z,23.95
2022-09-07T22:39:15.792Z,23.98
2022-09-07T22:41:46.095Z,23.85
2022-09-07T22:44:18.934Z,23.93
2022-09-07T22:46:48.249Z,23.93
2022-09-07T22:49:18.166Z,23.94
2022-09-07T22:51:46.868Z,23.93
2022-09-07T22:54:15.422Z,23.95
2022-09-07T22:56:43.843Z,23.87
2022-09-07T22:59:15.066Z,23.92
2022-09-07T23:01:43.616Z,23.90
2022-09-07T23:04:13.209Z,23.83
2022-09-07T23:06:43.756Z,23.52
2022-09-07T23:09:15.488Z,23.76
2022-09-07T23:11:44.474Z,23.81
2022-09-07T23:14:17.198Z,23.72
2022-09-07T23:16:46.017Z,23.70
2022-09-07T23:19:16.066Z,23.70
2022-09-07T23:21:44.988Z,23.75
2022-09-07T23:24:14.870Z,23.81
2022-09-07T23:26:43.328Z,23.80
2022-09-07T23:29:15.634Z,23.47
2022-09-07T23:31:43.984Z,23.44
2022-09-07T23:34:12.802Z,23.29
2022-09-07T23:36:41.113Z,23.25
2022-09-07T23:39:09.556Z,22.42
2022-09-07T23:41:37.830Z,22.06
2022-09-07T23:44:06.351Z,22.64
2022-09-07T23:46:36.419Z,22.95
2022-09-07T23:49:04.829Z,22.36
2022-09-07T23:51:33.347Z,21.81
2022-09-07T23:54:01.629Z,22.63
2022-09-07T23:56:31.197Z,23.10
2022-09-07T23:59:00.086Z,22.95
